Time;durP1;ratioP1;P1;durP2;ratioP2;P2;SDS_P1;SDS_P2;PMS_P1;PMS_P2;Temp;Humidity;BMP_temperature;BMP_pressure;BME280_temperature;BME280_humidity;BME280_pressure;Samples;Min_cycle;Max_cycle;Signal;HPM_P1;HPM_P2
2021/01/12 00:00:32;;;;;;;5.10;0.90;;;27.40;99.90;;;;;;5058927;22;20506;-85
2021/01/12 00:03:00;;;;;;;5.68;0.77;;;27.60;99.90;;;;;;5045492;28;20037;-85
2021/01/12 00:05:28;;;;;;;7.68;0.68;;;27.80;99.90;;;;;;5044362;28;20032;-88
2021/01/12 00:07:56;;;;;;;4.55;1.52;;;27.60;99.90;;;;;;5045026;28;20107;-91
2021/01/12 00:10:24;;;;;;;4.75;0.80;;;27.90;99.90;;;;;;5032234;28;20057;-92
2021/01/12 00:12:55;;;;;;;4.28;0.98;;;27.90;99.90;;;;;;5029439;28;20922;-91
2021/01/12 00:15:22;;;;;;;5.43;0.98;;;28.20;99.90;;;;;;5053878;28;20500;-93
2021/01/12 00:17:50;;;;;;;6.95;1.17;;;28.50;99.90;;;;;;5050807;28;20037;-94
2021/01/12 00:20:18;;;;;;;4.50;0.73;;;28.60;99.90;;;;;;5051979;28;20497;-92
2021/01/12 00:22:45;;;;;;;5.97;0.70;;;28.60;99.90;;;;;;5050021;28;20036;-92
2021/01/12 00:25:14;;;;;;;4.63;0.95;;;28.70;99.90;;;;;;5059807;28;20020;-93
2021/01/12 00:27:41;;;;;;;4.25;1.05;;;28.70;99.90;;;;;;5067447;28;20173;-92
2021/01/12 00:30:10;;;;;;;5.68;1.27;;;28.50;99.90;;;;;;5052247;28;20569;-94
2021/01/12 00:32:37;;;;;;;6.45;1.10;;;28.60;99.90;;;;;;5051746;28;20090;-93
2021/01/12 00:35:05;;;;;;;3.85;0.82;;;28.90;99.90;;;;;;5049138;28;20025;-91
2021/01/12 00:37:32;;;;;;;5.30;1.00;;;28.90;99.90;;;;;;5048854;28;20037;-93
2021/01/12 00:39:59;;;;;;;7.15;1.45;;;29.10;99.90;;;;;;5031562;28;20022;-88
2021/01/12 00:42:26;;;;;;;2.42;0.70;;;29.10;99.90;;;;;;5022818;28;20495;-92
2021/01/12 00:44:54;;;;;;;5.05;0.75;;;29.10;99.90;;;;;;5050631;28;20021;-88
2021/01/12 00:47:24;;;;;;;6.57;1.02;;;28.80;99.90;;;;;;5033555;28;20068;-85
2021/01/12 00:49:52;;;;;;;4.97;1.02;;;28.70;99.90;;;;;;5050958;28;20032;-93
2021/01/12 00:52:20;;;;;;;3.78;0.90;;;28.40;99.90;;;;;;5038081;28;20020;-91
2021/01/12 00:54:47;;;;;;;4.93;0.80;;;28.60;99.90;;;;;;5048202;28;20094;-93
2021/01/12 00:57:14;;;;;;;5.05;0.88;;;28.80;99.90;;;;;;5051701;28;20485;-86
2021/01/12 00:59:45;;;;;;;2.08;0.63;;;28.90;99.90;;;;;;5041724;22;20060;-92
2021/01/12 01:02:13;;;;;;;3.60;0.60;;;29.00;99.90;;;;;;5062351;22;20078;-93
2021/01/12 01:04:40;;;;;;;2.05;0.50;;;29.00;99.90;;;;;;5068727;22;20127;-91
2021/01/12 01:07:07;;;;;;;3.75;0.80;;;29.30;99.90;;;;;;5066952;22;20029;-94
2021/01/12 01:09:35;;;;;;;4.80;0.63;;;28.90;99.90;;;;;;5053742;28;20033;-88
2021/01/12 01:12:03;;;;;;;3.33;0.65;;;28.50;99.90;;;;;;5039592;28;20091;-94
2021/01/12 01:14:30;;;;;;;5.00;1.00;;;28.30;99.90;;;;;;5048562;28;20029;-91
2021/01/12 01:16:57;;;;;;;8.00;0.73;;;28.90;99.90;;;;;;5040050;23;20047;-93
2021/01/12 01:19:24;;;;;;;2.55;0.75;;;29.30;99.90;;;;;;5048773;28;20557;-91
2021/01/12 01:21:52;;;;;;;6.03;1.02;;;29.00;99.90;;;;;;5051045;28;20021;-91
2021/01/12 01:24:19;;;;;;;3.58;0.95;;;29.40;99.90;;;;;;5035750;28;20036;-93
2021/01/12 01:26:47;;;;;;;2.35;0.43;;;29.40;99.90;;;;;;5043335;28;20083;-91
2021/01/12 01:29:15;;;;;;;8.68;1.00;;;29.60;99.90;;;;;;5030869;28;20480;-89
2021/01/12 01:31:42;;;;;;;6.63;1.70;;;29.80;99.90;;;;;;5048533;28;20052;-85
2021/01/12 01:34:10;;;;;;;4.25;0.57;;;30.30;99.90;;;;;;5047914;22;20057;-87
2021/01/12 01:36:37;;;;;;;4.28;0.93;;;29.50;99.90;;;;;;5038276;28;20068;-87
2021/01/12 01:39:05;;;;;;;6.68;1.42;;;28.80;99.90;;;;;;5048221;28;20029;-89
2021/01/12 01:41:32;;;;;;;3.92;0.85;;;29.00;99.90;;;;;;5059180;28;20043;-86
2021/01/12 01:43:59;;;;;;;4.68;0.90;;;29.20;99.90;;;;;;5062814;28;20044;-82
2021/01/12 01:46:27;;;;;;;6.65;1.00;;;29.30;99.90;;;;;;5050492;28;20031;-82
2021/01/12 01:48:54;;;;;;;4.78;1.23;;;29.20;99.90;;;;;;5067770;28;20033;-79
2021/01/12 01:51:21;;;;;;;3.45;0.80;;;29.30;99.90;;;;;;5067675;28;20016;-82
2021/01/12 01:53:49;;;;;;;2.85;0.73;;;29.40;99.90;;;;;;5051524;28;20063;-81
2021/01/12 01:56:16;;;;;;;5.47;1.10;;;29.00;99.90;;;;;;5071413;28;20025;-83
2021/01/12 01:58:43;;;;;;;5.00;0.93;;;28.60;99.90;;;;;;5071888;28;20075;-83
2021/01/12 02:01:11;;;;;;;10.10;1.40;;;28.30;99.90;;;;;;5073585;28;20100;-83
2021/01/12 02:03:44;;;;;;;4.95;0.90;;;28.20;99.90;;;;;;5054795;28;20085;-83
2021/01/12 02:06:23;;;;;;;4.05;0.90;;;28.20;99.90;;;;;;5079358;22;20052;-86
2021/01/12 02:09:00;;;;;;;4.38;1.10;;;27.90;99.90;;;;;;5060836;28;20497;-81
2021/01/12 02:11:34;;;;;;;4.07;0.82;;;27.90;99.90;;;;;;5069041;28;20021;-80
2021/01/12 02:14:06;;;;;;;2.50;0.82;;;28.10;99.90;;;;;;5072233;28;20036;-84
2021/01/12 02:16:34;;;;;;;6.05;1.02;;;28.60;99.90;;;;;;5072839;28;20497;-87
2021/01/12 02:19:04;;;;;;;3.00;0.75;;;29.40;99.90;;;;;;5068005;28;20029;-87
2021/01/12 02:21:40;;;;;;;6.60;1.02;;;29.50;99.90;;;;;;5053745;28;20029;-85
2021/01/12 02:24:09;;;;;;;5.63;0.80;;;29.20;99.90;;;;;;5070511;28;20439;-86
2021/01/12 02:26:36;;;;;;;5.47;0.70;;;28.60;99.90;;;;;;5070456;28;20075;-87
2021/01/12 02:29:04;;;;;;;5.47;1.33;;;28.30;99.90;;;;;;5068720;28;20052;-88
2021/01/12 02:31:32;;;;;;;5.05;0.98;;;27.90;99.90;;;;;;5070350;28;20056;-85
2021/01/12 02:34:04;;;;;;;5.35;0.70;;;28.20;99.90;;;;;;5060903;28;20063;-87
2021/01/12 02:36:33;;;;;;;5.78;1.00;;;28.00;99.90;;;;;;5071492;28;20442;-83
2021/01/12 02:39:01;;;;;;;6.53;0.90;;;27.90;99.90;;;;;;5059976;28;20116;-83
2021/01/12 02:41:33;;;;;;;4.40;0.90;;;27.60;99.90;;;;;;5060974;28;20024;-84
2021/01/12 02:44:02;;;;;;;5.18;1.00;;;27.30;99.90;;;;;;5070805;28;20493;-86
2021/01/12 02:46:30;;;;;;;4.38;0.63;;;27.30;99.90;;;;;;5043593;28;20028;-79
2021/01/12 02:48:58;;;;;;;10.32;1.30;;;27.50;99.90;;;;;;5054664;28;20086;-86
2021/01/12 02:51:25;;;;;;;3.78;0.95;;;27.90;99.90;;;;;;5073586;28;20415;-84
2021/01/12 02:53:52;;;;;;;5.22;0.90;;;27.90;99.90;;;;;;5071672;28;20086;-86
2021/01/12 02:56:25;;;;;;;4.10;1.05;;;27.60;99.90;;;;;;5067104;28;20035;-85
2021/01/12 02:58:53;;;;;;;5.05;0.85;;;27.60;99.90;;;;;;5060945;28;20067;-82
2021/01/12 03:01:23;;;;;;;5.28;0.90;;;27.60;99.90;;;;;;5062584;28;20094;-88
2021/01/12 03:03:51;;;;;;;4.78;0.95;;;27.80;99.90;;;;;;5067885;28;20044;-86
2021/01/12 03:06:18;;;;;;;5.93;1.70;;;27.50;99.90;;;;;;5065986;28;20040;-90
2021/01/12 03:08:45;;;;;;;3.40;0.93;;;27.60;99.90;;;;;;5076467;22;20068;-85
2021/01/12 03:11:12;;;;;;;7.65;1.50;;;27.50;99.90;;;;;;5067624;22;20049;-83
2021/01/12 03:13:40;;;;;;;4.15;0.88;;;27.40;99.90;;;;;;5069766;28;20028;-83
2021/01/12 03:16:07;;;;;;;6.47;1.48;;;27.10;99.90;;;;;;5089046;22;20412;-82
2021/01/12 03:18:34;;;;;;;5.63;1.05;;;27.10;99.90;;;;;;5069864;28;20024;-82
2021/01/12 03:21:02;;;;;;;8.45;1.15;;;27.20;99.90;;;;;;5073504;28;20496;-82
2021/01/12 03:23:29;;;;;;;3.70;0.80;;;27.30;99.90;;;;;;5060982;22;20028;-82
2021/01/12 03:25:57;;;;;;;7.05;1.25;;;27.40;99.90;;;;;;5070505;28;20037;-83
2021/01/12 03:28:24;;;;;;;7.18;1.05;;;27.60;99.90;;;;;;5069355;28;20590;-83
2021/01/12 03:30:51;;;;;;;6.18;1.23;;;27.80;99.90;;;;;;5068318;28;20050;-83
2021/01/12 03:33:18;;;;;;;9.60;1.73;;;27.90;99.90;;;;;;5058443;28;20017;-83
2021/01/12 03:35:46;;;;;;;5.53;1.60;;;28.20;99.90;;;;;;5065978;28;20017;-82
2021/01/12 03:38:13;;;;;;;8.32;1.40;;;28.40;99.90;;;;;;5058297;28;20044;-83
2021/01/12 03:40:40;;;;;;;7.75;1.63;;;28.30;99.90;;;;;;5088729;22;20517;-82
2021/01/12 03:43:07;;;;;;;7.78;1.20;;;28.30;99.90;;;;;;5068272;28;20335;-82
2021/01/12 03:45:35;;;;;;;12.07;2.80;;;28.50;99.90;;;;;;5072322;28;20025;-82
2021/01/12 03:48:02;;;;;;;5.88;1.10;;;28.40;99.90;;;;;;5070443;28;20497;-83
2021/01/12 03:50:30;;;;;;;5.97;1.27;;;28.10;99.90;;;;;;5052874;28;20021;-83
2021/01/12 03:52:57;;;;;;;7.30;1.40;;;27.90;99.90;;;;;;5052888;28;20024;-82
2021/01/12 03:55:24;;;;;;;7.20;1.40;;;28.00;99.90;;;;;;5029483;28;20025;-82
2021/01/12 03:57:51;;;;;;;7.55;1.10;;;28.10;99.90;;;;;;5051468;28;20094;-83
2021/01/12 04:00:19;;;;;;;8.73;1.48;;;28.30;99.90;;;;;;5052324;28;20021;-82
2021/01/12 04:02:46;;;;;;;4.28;0.70;;;28.40;99.90;;;;;;5049317;28;20485;-83
2021/01/12 04:05:14;;;;;;;5.55;1.13;;;28.60;99.90;;;;;;5050951;28;20028;-84
2021/01/12 04:07:41;;;;;;;4.03;1.00;;;28.90;99.90;;;;;;5051016;28;20243;-84
2021/01/12 04:10:10;;;;;;;6.00;1.30;;;28.80;99.90;;;;;;5050627;28;20021;-84
2021/01/12 04:12:37;;;;;;;4.50;0.90;;;28.90;99.90;;;;;;5050623;28;20175;-84
2021/01/12 04:15:07;;;;;;;7.82;0.63;;;29.00;99.90;;;;;;5079809;22;20136;-83
2021/01/12 04:17:34;;;;;;;6.93;1.58;;;29.00;99.90;;;;;;5064715;28;20079;-84
2021/01/12 04:20:01;;;;;;;5.57;1.38;;;28.90;99.90;;;;;;5049638;28;20047;-83
2021/01/12 04:22:28;;;;;;;6.00;1.27;;;28.80;99.90;;;;;;5050177;28;20466;-81
2021/01/12 04:24:59;;;;;;;6.68;1.08;;;29.00;99.90;;;;;;5039582;28;20040;-81
2021/01/12 04:27:26;;;;;;;5.53;0.80;;;29.30;99.90;;;;;;5031490;28;20037;-80
2021/01/12 04:29:53;;;;;;;3.80;0.60;;;29.30;99.90;;;;;;5032168;28;20018;-85
2021/01/12 04:32:21;;;;;;;4.00;0.80;;;29.30;99.90;;;;;;5030708;28;20155;-85
2021/01/12 04:34:48;;;;;;;6.45;1.23;;;29.40;99.90;;;;;;5044579;28;20021;-82
2021/01/12 04:37:15;;;;;;;6.20;0.98;;;28.90;99.90;;;;;;5047434;28;20025;-85
2021/01/12 04:39:43;;;;;;;5.68;1.45;;;28.70;99.90;;;;;;5039291;28;20175;-87
2021/01/12 04:42:10;;;;;;;8.18;1.48;;;28.60;99.90;;;;;;5048370;28;20021;-90
2021/01/12 04:44:37;;;;;;;2.85;0.65;;;28.70;99.90;;;;;;5045802;28;20025;-87
2021/01/12 04:47:08;;;;;;;5.65;0.73;;;28.60;99.90;;;;;;5049402;28;20029;-92
2021/01/12 04:49:36;;;;;;;3.63;0.60;;;28.50;99.90;;;;;;5047646;28;20112;-75
2021/01/12 04:52:03;;;;;;;4.38;0.90;;;28.40;99.90;;;;;;5051710;28;20023;-83
2021/01/12 04:54:35;;;;;;;7.30;1.70;;;28.40;99.90;;;;;;5063375;28;20066;-87
2021/01/12 04:57:05;;;;;;;3.55;0.90;;;28.20;99.90;;;;;;5034522;28;20029;-87
2021/01/12 04:59:34;;;;;;;8.13;0.73;;;28.20;99.90;;;;;;5035102;28;20116;-85
2021/01/12 05:02:02;;;;;;;6.45;0.85;;;28.20;99.90;;;;;;5031386;28;20022;-86
2021/01/12 05:04:29;;;;;;;3.75;0.63;;;28.20;99.90;;;;;;5047301;28;20028;-85
2021/01/12 05:06:57;;;;;;;6.57;0.70;;;28.30;99.90;;;;;;5051721;28;20056;-92
2021/01/12 05:09:26;;;;;;;4.78;0.65;;;27.90;99.90;;;;;;5033985;28;20037;-87
2021/01/12 05:11:58;;;;;;;4.32;0.80;;;27.90;99.90;;;;;;5031686;28;20250;-87
2021/01/12 05:14:27;;;;;;;6.25;0.93;;;28.00;99.90;;;;;;5046328;28;20486;-81
2021/01/12 05:16:56;;;;;;;4.82;1.02;;;27.90;99.90;;;;;;5104531;22;20900;-86
2021/01/12 05:19:27;;;;;;;4.95;0.95;;;28.10;99.90;;;;;;5062090;22;20052;-83
2021/01/12 05:22:02;;;;;;;4.00;0.43;;;28.20;99.90;;;;;;5051665;28;20017;-83
2021/01/12 05:24:39;;;;;;;4.88;0.60;;;27.90;99.90;;;;;;5039570;22;20049;-84
2021/01/12 05:27:09;;;;;;;6.05;0.50;;;28.00;99.90;;;;;;5031543;28;20104;-81
2021/01/12 05:29:38;;;;;;;2.78;0.55;;;27.70;99.90;;;;;;5014502;28;20116;-89
2021/01/12 05:32:08;;;;;;;4.85;0.73;;;27.60;99.90;;;;;;5045031;22;20048;-87
2021/01/12 05:34:38;;;;;;;3.70;0.90;;;27.60;99.90;;;;;;5074979;28;20024;-82
2021/01/12 05:37:08;;;;;;;7.07;1.00;;;27.60;99.90;;;;;;5068225;28;20063;-83
2021/01/12 05:39:40;;;;;;;4.57;0.82;;;27.70;99.90;;;;;;5071761;28;20024;-82
2021/01/12 05:42:09;;;;;;;3.58;0.82;;;27.80;99.90;;;;;;5074547;28;20417;-86
2021/01/12 05:44:39;;;;;;;3.60;0.82;;;27.60;99.90;;;;;;5073204;28;20028;-86
2021/01/12 05:47:07;;;;;;;5.28;0.88;;;27.50;99.90;;;;;;5072403;28;20126;-89
2021/01/12 05:49:35;;;;;;;5.25;0.70;;;27.40;99.90;;;;;;5056077;22;20553;-86
2021/01/12 05:52:07;;;;;;;4.97;1.13;;;27.40;99.90;;;;;;5049636;28;20030;-87
2021/01/12 05:54:38;;;;;;;7.40;1.25;;;27.40;99.90;;;;;;5053210;28;20435;-88
2021/01/12 05:57:07;;;;;;;4.88;0.80;;;27.50;99.90;;;;;;5054293;28;20056;-88
2021/01/12 05:59:39;;;;;;;3.35;0.82;;;27.50;99.90;;;;;;5054161;28;20029;-85
2021/01/12 06:02:15;;;;;;;3.15;0.80;;;27.50;99.90;;;;;;5055084;28;20029;-85
2021/01/12 06:04:54;;;;;;;5.28;1.27;;;27.60;99.90;;;;;;5051975;28;20549;-85
2021/01/12 06:07:21;;;;;;;4.22;0.90;;;27.70;99.90;;;;;;5032182;28;20502;-93
2021/01/12 06:09:49;;;;;;;6.07;0.90;;;27.70;99.90;;;;;;5053987;28;20025;-95
2021/01/12 06:12:19;;;;;;;3.30;0.55;;;27.60;99.90;;;;;;5050541;28;20021;-83
2021/01/12 06:14:52;;;;;;;3.72;0.75;;;27.60;99.90;;;;;;5054256;28;20573;-85
2021/01/12 06:17:20;;;;;;;5.50;0.75;;;27.50;99.90;;;;;;5053577;28;20098;-81
2021/01/12 06:19:50;;;;;;;5.88;1.05;;;27.60;99.90;;;;;;5054319;28;20067;-84
2021/01/12 06:22:20;;;;;;;5.97;0.90;;;27.60;99.90;;;;;;5080346;22;20057;-84
2021/01/12 06:24:55;;;;;;;3.53;0.85;;;27.50;99.90;;;;;;5046645;28;20032;-84
2021/01/12 06:27:28;;;;;;;8.23;1.40;;;27.40;99.90;;;;;;5056929;28;20129;-87
2021/01/12 06:29:59;;;;;;;6.22;1.08;;;27.40;99.90;;;;;;5049156;28;20025;-89
2021/01/12 06:32:28;;;;;;;7.00;1.65;;;27.30;99.90;;;;;;5034021;28;20033;-81
2021/01/12 06:35:02;;;;;;;8.32;0.80;;;27.30;99.90;;;;;;5054691;28;20083;-82
2021/01/12 06:37:33;;;;;;;6.13;0.60;;;27.20;99.90;;;;;;5067078;28;20028;-81
2021/01/12 06:40:04;;;;;;;4.88;0.68;;;27.10;99.90;;;;;;5051071;28;20056;-80
2021/01/12 06:42:32;;;;;;;4.90;0.73;;;27.10;99.90;;;;;;5049048;28;20044;-80
2021/01/12 06:45:00;;;;;;;6.95;1.27;;;27.20;99.90;;;;;;5034066;28;20021;-80
2021/01/12 06:47:30;;;;;;;6.30;1.13;;;27.30;99.90;;;;;;5040885;28;20561;-81
2021/01/12 06:50:12;;;;;;;7.40;0.98;;;27.30;99.90;;;;;;5045769;28;20033;-78
2021/01/12 06:52:44;;;;;;;5.53;1.05;;;27.20;99.90;;;;;;5048731;28;20036;-81
2021/01/12 06:55:14;;;;;;;3.47;0.55;;;27.10;99.90;;;;;;5047322;28;20022;-84
2021/01/12 06:57:49;;;;;;;7.25;1.13;;;26.90;99.90;;;;;;5047868;28;20040;-81
2021/01/12 07:00:18;;;;;;;7.90;2.08;;;26.90;99.90;;;;;;5049487;28;20035;-82
2021/01/12 07:02:56;;;;;;;5.82;1.02;;;26.80;99.90;;;;;;5050740;28;20029;-81
2021/01/12 07:05:24;;;;;;;6.65;0.82;;;26.80;99.90;;;;;;5055568;28;20052;-82
2021/01/12 07:07:52;;;;;;;7.05;1.27;;;26.80;99.90;;;;;;5049402;28;20041;-83
2021/01/12 07:10:24;;;;;;;5.28;1.08;;;26.70;99.90;;;;;;5048260;28;20489;-83
2021/01/12 07:12:53;;;;;;;6.38;1.17;;;26.70;99.90;;;;;;5049222;28;20128;-85
2021/01/12 07:15:22;;;;;;;4.82;0.82;;;26.70;99.90;;;;;;5050598;28;20021;-83
2021/01/12 07:17:58;;;;;;;7.93;1.48;;;26.70;99.90;;;;;;5044745;28;20104;-81
2021/01/12 07:20:38;;;;;;;4.53;1.10;;;26.60;99.90;;;;;;5047867;28;20485;-84
2021/01/12 07:23:13;;;;;;;12.30;1.63;;;26.50;99.90;;;;;;5065165;22;20465;-83
2021/01/12 07:25:42;;;;;;;4.63;1.27;;;26.60;99.90;;;;;;5094960;22;20147;-86
2021/01/12 07:28:21;;;;;;;5.78;1.02;;;26.70;99.90;;;;;;5051474;28;20434;-83
2021/01/12 07:30:50;;;;;;;7.00;1.13;;;26.50;99.90;;;;;;5066305;22;20041;-83
2021/01/12 07:33:22;;;;;;;6.38;1.00;;;26.50;99.90;;;;;;5065528;28;20082;-83
2021/01/12 07:35:52;;;;;;;6.07;1.45;;;26.50;99.90;;;;;;5053579;28;20017;-83
2021/01/12 07:38:22;;;;;;;4.78;0.98;;;26.50;99.90;;;;;;5035139;28;20068;-83
2021/01/12 07:40:50;;;;;;;7.43;1.30;;;26.50;99.90;;;;;;5060864;22;20109;-82
2021/01/12 07:43:20;;;;;;;8.27;1.90;;;26.40;99.90;;;;;;5050324;28;20115;-85
2021/01/12 07:45:52;;;;;;;5.55;1.15;;;26.50;99.90;;;;;;5052157;28;20063;-83
2021/01/12 07:48:20;;;;;;;10.95;1.27;;;26.40;99.90;;;;;;5049308;28;20501;-84
2021/01/12 07:50:49;;;;;;;6.85;1.05;;;26.50;99.90;;;;;;5046287;28;20029;-82
2021/01/12 07:53:16;;;;;;;6.85;0.75;;;26.30;99.90;;;;;;5033182;28;20026;-82
2021/01/12 07:55:48;;;;;;;6.93;1.40;;;26.10;99.90;;;;;;5053701;22;20079;-85
2021/01/12 07:58:18;;;;;;;7.85;1.77;;;26.10;99.90;;;;;;5032516;28;20037;-83
2021/01/12 08:00:49;;;;;;;8.90;1.30;;;26.00;99.90;;;;;;5028279;28;20081;-81
2021/01/12 08:03:16;;;;;;;5.82;0.65;;;25.80;99.90;;;;;;5024608;28;20060;-84
2021/01/12 08:05:44;;;;;;;3.85;1.30;;;25.80;99.90;;;;;;5016913;28;20487;-83
2021/01/12 08:08:12;;;;;;;5.93;0.90;;;25.80;99.90;;;;;;5022863;28;20044;-83
2021/01/12 08:10:41;;;;;;;5.38;1.10;;;25.60;99.90;;;;;;5028926;28;20029;-84
2021/01/12 08:13:11;;;;;;;7.43;1.00;;;25.60;99.90;;;;;;5025043;28;20501;-84
2021/01/12 08:15:41;;;;;;;9.02;1.30;;;25.60;99.90;;;;;;5041156;28;20017;-84
2021/01/12 08:18:16;;;;;;;10.27;2.17;;;25.60;99.90;;;;;;5023644;28;20115;-84
2021/01/12 08:20:45;;;;;;;9.90;2.28;;;25.50;99.90;;;;;;5035936;28;20029;-84
2021/01/12 08:23:21;;;;;;;5.63;1.17;;;25.50;99.90;;;;;;5033015;28;20017;-84
2021/01/12 08:25:49;;;;;;;7.63;1.38;;;25.40;99.90;;;;;;5023794;28;20017;-82
2021/01/12 08:28:16;;;;;;;5.43;1.00;;;25.30;99.90;;;;;;5022982;28;20041;-85
2021/01/12 08:30:44;;;;;;;10.82;1.35;;;25.30;99.90;;;;;;5076355;22;20083;-86
2021/01/12 08:33:14;;;;;;;10.50;1.55;;;25.20;99.90;;;;;;5072324;28;20024;-85
2021/01/12 08:35:52;;;;;;;10.52;1.27;;;25.00;99.90;;;;;;5072153;28;20020;-84
2021/01/12 08:38:22;;;;;;;7.03;1.20;;;25.00;99.90;;;;;;5067809;28;20027;-85
2021/01/12 08:40:51;;;;;;;6.85;1.20;;;25.00;99.90;;;;;;5069042;28;20025;-86
2021/01/12 08:43:20;;;;;;;7.28;1.13;;;24.90;99.90;;;;;;5067069;28;20029;-85
2021/01/12 08:45:48;;;;;;;5.32;1.20;;;25.00;99.90;;;;;;5065541;28;20616;-84
2021/01/12 08:48:17;;;;;;;5.65;1.23;;;24.90;99.90;;;;;;5057755;28;20044;-86
2021/01/12 08:50:45;;;;;;;10.80;1.20;;;24.80;99.90;;;;;;5071202;28;20095;-85
2021/01/12 08:53:17;;;;;;;7.70;0.77;;;24.70;99.90;;;;;;5071336;28;20047;-85
2021/01/12 08:55:45;;;;;;;6.47;0.85;;;24.60;99.90;;;;;;5070777;28;20020;-86
2021/01/12 08:58:13;;;;;;;10.20;2.53;;;24.50;99.90;;;;;;5070762;28;20017;-86
2021/01/12 09:00:41;;;;;;;7.85;1.10;;;24.50;99.90;;;;;;5059074;28;20048;-83
2021/01/12 09:03:13;;;;;;;7.32;1.38;;;24.50;99.90;;;;;;5062913;28;20036;-85
2021/01/12 09:05:42;;;;;;;10.85;1.80;;;24.40;99.90;;;;;;5071632;28;20027;-84
2021/01/12 09:08:17;;;;;;;12.35;1.98;;;24.40;99.90;;;;;;5070970;28;20054;-84
2021/01/12 09:10:44;;;;;;;14.55;1.50;;;24.30;99.90;;;;;;5071601;28;20476;-84
2021/01/12 09:13:12;;;;;;;10.32;2.15;;;24.30;99.90;;;;;;5052296;28;20098;-85
2021/01/12 09:15:41;;;;;;;9.93;1.30;;;24.20;99.90;;;;;;5057936;28;20025;-85
2021/01/12 09:18:23;;;;;;;10.93;1.90;;;24.20;99.90;;;;;;5052458;28;20024;-85
2021/01/12 09:21:07;;;;;;;10.75;2.38;;;24.10;99.90;;;;;;5071857;28;20025;-86
2021/01/12 09:23:33;;;;;;;;;;;24.00;99.90;;;;;;5062173;28;20063;-86
2021/01/12 09:26:03;;;;;;;12.30;2.15;;;24.00;99.90;;;;;;5053157;28;19927;-87
2021/01/12 09:28:32;;;;;;;8.38;1.90;;;23.90;99.90;;;;;;5056878;28;20381;-86
2021/01/12 09:33:29;;;;;;;11.88;2.15;;;24.00;99.90;;;;;;5092086;22;20044;-89
2021/01/12 09:36:04;;;;;;;9.73;1.45;;;23.90;99.90;;;;;;5070937;28;20432;-86
2021/01/12 09:38:47;;;;;;;14.68;2.17;;;23.90;99.90;;;;;;5064570;22;20084;-86
2021/01/12 09:41:16;;;;;;;10.40;1.23;;;23.80;99.90;;;;;;5029591;28;20453;-90
2021/01/12 09:43:44;;;;;;;11.20;2.30;;;23.80;99.90;;;;;;5021698;28;20182;-88
2021/01/12 09:46:11;;;;;;;10.98;1.95;;;23.70;99.90;;;;;;5015792;28;20025;-86
2021/01/12 09:48:39;;;;;;;10.30;2.70;;;23.70;99.90;;;;;;5064471;23;20080;-84
2021/01/12 09:51:09;;;;;;;16.60;2.75;;;23.70;99.90;;;;;;5043261;28;20026;-89
2021/01/12 09:53:46;;;;;;;9.65;1.50;;;23.70;99.90;;;;;;5030684;28;20096;-85
2021/01/12 09:56:17;;;;;;;11.25;1.92;;;23.70;99.90;;;;;;5041360;28;20048;-87
2021/01/12 09:58:45;;;;;;;11.75;2.55;;;23.60;99.90;;;;;;5051133;28;20022;-86
2021/01/12 10:01:20;;;;;;;10.00;1.65;;;23.50;99.90;;;;;;5050981;28;20044;-85
2021/01/12 10:03:48;;;;;;;6.78;1.92;;;23.50;99.90;;;;;;5062549;22;20045;-83
2021/01/12 10:06:22;;;;;;;9.30;1.35;;;23.40;99.90;;;;;;5070518;28;20020;-84
2021/01/12 10:08:50;;;;;;;11.95;1.95;;;23.50;99.90;;;;;;5050724;28;20040;-85
2021/01/12 10:11:18;;;;;;;10.52;1.83;;;23.50;99.90;;;;;;5070300;28;20032;-86
2021/01/12 10:13:46;;;;;;;16.10;1.95;;;23.50;99.90;;;;;;5052421;28;20048;-85
2021/01/12 10:16:24;;;;;;;9.48;2.03;;;23.50;99.90;;;;;;5073658;28;20024;-85
2021/01/12 10:18:52;;;;;;;10.70;1.58;;;23.50;99.90;;;;;;5073742;28;20093;-86
2021/01/12 10:21:20;;;;;;;11.85;1.60;;;23.50;99.90;;;;;;5070467;28;20039;-87
2021/01/12 10:23:48;;;;;;;11.15;1.65;;;23.40;99.90;;;;;;5061875;28;20028;-88
2021/01/12 10:26:20;;;;;;;9.00;1.35;;;23.30;99.90;;;;;;5055983;28;20036;-86
2021/01/12 10:28:47;;;;;;;13.40;2.08;;;23.40;99.90;;;;;;5063319;28;20029;-84
2021/01/12 10:31:18;;;;;;;8.35;1.88;;;23.20;99.90;;;;;;5072458;28;20030;-83
2021/01/12 10:33:45;;;;;;;14.40;1.80;;;23.30;99.90;;;;;;5060469;28;20082;-83
2021/01/12 10:36:17;;;;;;;14.30;2.10;;;23.30;99.90;;;;;;5071264;28;20401;-82
2021/01/12 10:38:45;;;;;;;14.25;1.77;;;23.20;99.90;;;;;;5086664;22;20475;-83
2021/01/12 10:41:14;;;;;;;11.68;1.52;;;23.20;99.90;;;;;;5058751;28;20093;-83
2021/01/12 10:43:42;;;;;;;12.20;2.13;;;23.30;99.90;;;;;;5062571;28;20498;-84
2021/01/12 10:46:10;;;;;;;10.15;1.80;;;23.30;99.90;;;;;;5073952;28;20024;-83
2021/01/12 10:48:39;;;;;;;14.48;2.10;;;23.30;99.90;;;;;;5054502;28;20037;-84
2021/01/12 10:51:06;;;;;;;10.50;2.40;;;23.30;99.90;;;;;;5042268;28;20442;-84
2021/01/12 10:53:34;;;;;;;13.00;2.38;;;23.30;99.90;;;;;;5046855;28;20029;-84
2021/01/12 10:56:02;;;;;;;13.63;2.15;;;23.30;99.90;;;;;;5062565;28;20021;-83
2021/01/12 10:58:29;;;;;;;11.90;1.73;;;23.10;99.90;;;;;;5068243;28;20017;-83
2021/01/12 11:00:57;;;;;;;11.25;2.25;;;23.20;99.90;;;;;;5071160;28;20051;-83
2021/01/12 11:03:24;;;;;;;11.02;1.55;;;23.10;99.90;;;;;;5057512;28;20027;-83
2021/01/12 11:05:54;;;;;;;8.05;1.40;;;23.10;99.90;;;;;;5069453;28;20074;-83
2021/01/12 11:08:22;;;;;;;12.15;1.45;;;23.10;99.90;;;;;;5056134;28;20040;-83
2021/01/12 11:10:49;;;;;;;11.65;1.85;;;23.10;99.90;;;;;;5063421;28;20036;-83
2021/01/12 11:13:17;;;;;;;13.55;1.90;;;23.10;99.90;;;;;;5064657;28;20023;-83
2021/01/12 11:15:45;;;;;;;14.10;2.30;;;23.00;99.90;;;;;;5062282;28;20024;-83
2021/01/12 11:18:12;;;;;;;12.25;1.75;;;22.90;99.90;;;;;;5070849;28;20021;-83
2021/01/12 11:20:41;;;;;;;11.07;1.95;;;22.90;99.90;;;;;;5057579;28;20025;-83
2021/01/12 11:23:09;;;;;;;13.98;1.80;;;23.00;99.90;;;;;;5043176;28;20098;-84
2021/01/12 11:25:36;;;;;;;12.57;2.75;;;23.00;99.90;;;;;;5058393;28;20102;-84
2021/01/12 11:28:03;;;;;;;10.38;1.58;;;22.90;99.90;;;;;;5069246;28;20028;-83
2021/01/12 11:30:30;;;;;;;12.73;1.70;;;22.90;99.90;;;;;;5065595;28;20074;-83
2021/01/12 11:32:59;;;;;;;14.82;1.60;;;22.90;99.90;;;;;;5064803;28;20046;-84
2021/01/12 11:35:27;;;;;;;12.75;1.75;;;22.80;99.90;;;;;;5068423;28;20029;-84
2021/01/12 11:37:54;;;;;;;13.85;1.63;;;22.90;99.90;;;;;;5082217;22;20110;-83
2021/01/12 11:40:21;;;;;;;14.07;2.08;;;22.80;99.90;;;;;;5074811;22;20048;-84
2021/01/12 11:42:51;;;;;;;15.93;1.67;;;22.80;99.90;;;;;;5089342;22;20509;-84
2021/01/12 11:45:18;;;;;;;15.95;1.73;;;22.80;99.90;;;;;;5089979;22;20047;-83
2021/01/12 11:47:45;;;;;;;16.05;2.60;;;22.70;99.90;;;;;;5069995;28;20082;-84
2021/01/12 11:50:13;;;;;;;15.05;2.13;;;22.80;99.90;;;;;;5059116;28;20029;-84
2021/01/12 11:52:41;;;;;;;12.27;2.13;;;22.80;99.90;;;;;;5033321;28;20256;-85
2021/01/12 11:55:08;;;;;;;17.92;2.38;;;22.80;99.90;;;;;;5052095;22;20052;-84
2021/01/12 11:57:36;;;;;;;14.95;2.15;;;22.90;99.90;;;;;;5044018;28;20029;-86
2021/01/12 12:00:06;;;;;;;13.38;1.90;;;22.80;99.90;;;;;;5031892;28;20079;-84
2021/01/12 12:02:33;;;;;;;13.65;2.10;;;22.80;99.90;;;;;;5030705;28;20041;-84
2021/01/12 12:05:01;;;;;;;14.00;2.40;;;22.80;99.90;;;;;;5030608;28;20037;-84
2021/01/12 12:07:28;;;;;;;11.63;1.70;;;22.80;99.90;;;;;;5029712;28;20037;-85
2021/01/12 12:09:55;;;;;;;13.77;1.77;;;22.80;99.90;;;;;;5029397;28;20112;-84
2021/01/12 12:12:23;;;;;;;10.20;1.52;;;22.80;99.90;;;;;;5064298;22;20185;-85
2021/01/12 12:14:50;;;;;;;9.95;1.83;;;22.80;99.90;;;;;;5051426;28;20375;-85
2021/01/12 12:17:18;;;;;;;9.95;1.38;;;22.80;99.90;;;;;;5049737;28;20036;-84
2021/01/12 12:19:45;;;;;;;9.50;2.38;;;22.80;99.90;;;;;;5051354;28;20036;-84
2021/01/12 12:22:12;;;;;;;10.80;1.55;;;22.70;99.90;;;;;;5051980;28;20021;-85
2021/01/12 12:24:39;;;;;;;16.08;1.70;;;22.70;99.90;;;;;;5032963;28;20389;-85
2021/01/12 12:27:07;;;;;;;13.77;1.55;;;22.80;99.90;;;;;;5050216;28;20036;-84
2021/01/12 12:29:35;;;;;;;14.95;2.83;;;22.70;99.90;;;;;;5049610;28;20036;-85
2021/01/12 12:32:06;;;;;;;10.73;1.25;;;22.70;99.90;;;;;;5040400;28;20082;-84
2021/01/12 12:34:34;;;;;;;12.43;2.85;;;22.70;99.90;;;;;;5050886;28;20047;-86
2021/01/12 12:37:01;;;;;;;13.18;1.67;;;22.60;99.90;;;;;;5051909;28;20679;-85
2021/01/12 12:39:29;;;;;;;13.32;2.03;;;22.70;99.90;;;;;;5049385;28;20359;-85
2021/01/12 12:41:57;;;;;;;16.42;2.58;;;22.70;99.90;;;;;;5048337;28;20029;-85
2021/01/12 12:44:24;;;;;;;12.75;1.75;;;22.70;99.90;;;;;;5068077;22;20400;-85
2021/01/12 12:46:52;;;;;;;13.90;1.90;;;22.60;99.90;;;;;;5071329;28;20036;-85
2021/01/12 12:49:19;;;;;;;14.45;2.03;;;22.60;99.90;;;;;;5059965;28;20041;-86
2021/01/12 12:51:49;;;;;;;14.32;2.17;;;22.60;99.90;;;;;;5033736;28;20026;-85
2021/01/12 12:54:19;;;;;;;15.75;2.92;;;22.60;99.90;;;;;;5046274;28;20024;-84